sensor_id;sensor_type;location;lat;lon;timestamp;pressure;altitude;pressure_sealevel;temperature;humidity
75640;BME280;64233;51.486;6.332;2023-07-24T00:01:54;100312.13;;;16.40;100.00
75640;BME280;64233;51.486;6.332;2023-07-24T00:04:19;100315.22;;;16.33;100.00
75640;BME280;64233;51.486;6.332;2023-07-24T00:06:44;100313.69;;;16.27;100.00
75640;BME280;64233;51.486;6.332;2023-07-24T00:09:10;100313.00;;;16.22;100.00
75640;BME280;64233;51.486;6.332;2023-07-24T00:11:35;100314.13;;;16.21;100.00
75640;BME280;64233;51.486;6.332;2023-07-24T00:14:00;100302.75;;;16.18;100.00
75640;BME280;64233;51.486;6.332;2023-07-24T00:16:26;100305.16;;;16.20;100.00
75640;BME280;64233;51.486;6.332;2023-07-24T00:18:51;100302.47;;;16.20;100.00
75640;BME280;64233;51.486;6.332;2023-07-24T00:21:16;100301.97;;;16.18;100.00
75640;BME280;64233;51.486;6.332;2023-07-24T00:23:41;100299.88;;;16.15;100.00
75640;BME280;64233;51.486;6.332;2023-07-24T00:26:07;100292.06;;;16.13;100.00
75640;BME280;64233;51.486;6.332;2023-07-24T00:28:32;100296.34;;;16.14;100.00
75640;BME280;64233;51.486;6.332;2023-07-24T00:30:58;100294.47;;;16.15;100.00
75640;BME280;64233;51.486;6.332;2023-07-24T00:33:23;100286.34;;;16.15;100.00
75640;BME280;64233;51.486;6.332;2023-07-24T00:35:48;100294.75;;;16.13;100.00
75640;BME280;64233;51.486;6.332;2023-07-24T00:38:13;100289.66;;;16.12;100.00
75640;BME280;64233;51.486;6.332;2023-07-24T00:40:39;100294.75;;;16.13;100.00
75640;BME280;64233;51.486;6.332;2023-07-24T00:43:04;100291.03;;;16.09;100.00
75640;BME280;64233;51.486;6.332;2023-07-24T00:45:29;100280.69;;;16.11;100.00
75640;BME280;64233;51.486;6.332;2023-07-24T00:47:55;100276.81;;;16.17;100.00
75640;BME280;64233;51.486;6.332;2023-07-24T00:50:20;100279.22;;;16.19;100.00
75640;BME280;64233;51.486;6.332;2023-07-24T00:52:46;100268.88;;;16.21;100.00
75640;BME280;64233;51.486;6.332;2023-07-24T00:55:13;100266.88;;;16.27;100.00
75640;BME280;64233;51.486;6.332;2023-07-24T00:57:39;100261.75;;;16.25;100.00
75640;BME280;64233;51.486;6.332;2023-07-24T01:00:06;100260.53;;;16.31;100.00
75640;BME280;64233;51.486;6.332;2023-07-24T01:02:31;100258.66;;;16.32;100.00
75640;BME280;64233;51.486;6.332;2023-07-24T01:04:57;100245.41;;;16.30;100.00
75640;BME280;64233;51.486;6.332;2023-07-24T01:07:23;100247.22;;;16.35;100.00
75640;BME280;64233;51.486;6.332;2023-07-24T01:09:48;100246.13;;;16.36;100.00
75640;BME280;64233;51.486;6.332;2023-07-24T01:12:33;100229.88;;;16.36;100.00
75640;BME280;64233;51.486;6.332;2023-07-24T01:15:10;100239.38;;;16.33;100.00
75640;BME280;64233;51.486;6.332;2023-07-24T01:17:43;100223.94;;;16.34;100.00
75640;BME280;64233;51.486;6.332;2023-07-24T01:20:11;100220.22;;;16.30;100.00
75640;BME280;64233;51.486;6.332;2023-07-24T01:25:35;100221.13;;;16.39;100.00
75640;BME280;64233;51.486;6.332;2023-07-24T01:28:07;100221.63;;;16.41;100.00
75640;BME280;64233;51.486;6.332;2023-07-24T01:30:33;100216.19;;;16.41;100.00
75640;BME280;64233;51.486;6.332;2023-07-24T01:32:58;100208.69;;;16.38;100.00
75640;BME280;64233;51.486;6.332;2023-07-24T01:35:24;100203.56;;;16.37;100.00
75640;BME280;64233;51.486;6.332;2023-07-24T01:37:51;100199.75;;;16.38;100.00
75640;BME280;64233;51.486;6.332;2023-07-24T01:40:17;100194.66;;;16.36;100.00
75640;BME280;64233;51.486;6.332;2023-07-24T01:42:42;100191.94;;;16.36;100.00
75640;BME280;64233;51.486;6.332;2023-07-24T01:45:08;100196.84;;;16.34;100.00
75640;BME280;64233;51.486;6.332;2023-07-24T01:47:34;100194.44;;;16.32;100.00
75640;BME280;64233;51.486;6.332;2023-07-24T01:49:59;100191.44;;;16.34;100.00
75640;BME280;64233;51.486;6.332;2023-07-24T01:52:25;100184.41;;;16.33;100.00
75640;BME280;64233;51.486;6.332;2023-07-24T01:54:50;100182.81;;;16.32;100.00
75640;BME280;64233;51.486;6.332;2023-07-24T01:57:15;100185.72;;;16.35;100.00
75640;BME280;64233;51.486;6.332;2023-07-24T01:59:41;100181.66;;;16.47;100.00
75640;BME280;64233;51.486;6.332;2023-07-24T02:02:06;100179.03;;;16.56;100.00
75640;BME280;64233;51.486;6.332;2023-07-24T02:04:31;100171.91;;;16.60;100.00
75640;BME280;64233;51.486;6.332;2023-07-24T02:06:57;100158.56;;;16.63;100.00
75640;BME280;64233;51.486;6.332;2023-07-24T02:09:22;100161.16;;;16.68;100.00
75640;BME280;64233;51.486;6.332;2023-07-24T02:11:47;100164.66;;;16.69;100.00
75640;BME280;64233;51.486;6.332;2023-07-24T02:14:13;100158.94;;;16.70;100.00
75640;BME280;64233;51.486;6.332;2023-07-24T02:16:39;100152.59;;;16.75;100.00
75640;BME280;64233;51.486;6.332;2023-07-24T02:19:05;100147.53;;;16.82;100.00
75640;BME280;64233;51.486;6.332;2023-07-24T02:21:31;100149.66;;;16.85;100.00
75640;BME280;64233;51.486;6.332;2023-07-24T02:23:56;100143.09;;;16.86;100.00
75640;BME280;64233;51.486;6.332;2023-07-24T02:26:21;100141.81;;;16.84;100.00
75640;BME280;64233;51.486;6.332;2023-07-24T02:28:47;100144.50;;;16.84;100.00
75640;BME280;64233;51.486;6.332;2023-07-24T02:31:12;100142.00;;;16.87;100.00
75640;BME280;64233;51.486;6.332;2023-07-24T02:33:38;100138.28;;;16.97;100.00
75640;BME280;64233;51.486;6.332;2023-07-24T02:36:04;100129.50;;;17.00;100.00
75640;BME280;64233;51.486;6.332;2023-07-24T02:38:29;100133.84;;;17.01;100.00
75640;BME280;64233;51.486;6.332;2023-07-24T02:40:54;100129.88;;;17.08;100.00
75640;BME280;64233;51.486;6.332;2023-07-24T02:43:20;100118.91;;;17.13;100.00
75640;BME280;64233;51.486;6.332;2023-07-24T02:45:45;100123.22;;;17.14;100.00
75640;BME280;64233;51.486;6.332;2023-07-24T02:48:10;100124.31;;;17.13;100.00
75640;BME280;64233;51.486;6.332;2023-07-24T02:50:35;100127.50;;;17.15;100.00
75640;BME280;64233;51.486;6.332;2023-07-24T02:53:01;100128.50;;;17.19;100.00
75640;BME280;64233;51.486;6.332;2023-07-24T02:55:26;100121.16;;;17.19;100.00
75640;BME280;64233;51.486;6.332;2023-07-24T02:57:52;100123.88;;;17.19;100.00
75640;BME280;64233;51.486;6.332;2023-07-24T03:00:17;100120.50;;;17.14;100.00
75640;BME280;64233;51.486;6.332;2023-07-24T03:02:42;100121.41;;;17.09;100.00
75640;BME280;64233;51.486;6.332;2023-07-24T03:05:08;100123.78;;;17.02;100.00
75640;BME280;64233;51.486;6.332;2023-07-24T03:07:33;100128.22;;;16.98;100.00
75640;BME280;64233;51.486;6.332;2023-07-24T03:09:59;100124.53;;;16.94;100.00
75640;BME280;64233;51.486;6.332;2023-07-24T03:12:24;100128.44;;;16.87;100.00
75640;BME280;64233;51.486;6.332;2023-07-24T03:14:50;100137.81;;;16.81;100.00
75640;BME280;64233;51.486;6.332;2023-07-24T03:17:15;100141.13;;;16.78;100.00
75640;BME280;64233;51.486;6.332;2023-07-24T03:19:41;100133.91;;;16.74;100.00
75640;BME280;64233;51.486;6.332;2023-07-24T03:22:06;100131.22;;;16.74;100.00
75640;BME280;64233;51.486;6.332;2023-07-24T03:24:31;100133.75;;;16.70;100.00
75640;BME280;64233;51.486;6.332;2023-07-24T03:26:56;100130.22;;;16.69;100.00
75640;BME280;64233;51.486;6.332;2023-07-24T03:29:22;100131.34;;;16.68;100.00
75640;BME280;64233;51.486;6.332;2023-07-24T03:31:47;100137.06;;;16.67;100.00
75640;BME280;64233;51.486;6.332;2023-07-24T03:34:12;100126.22;;;16.67;100.00
75640;BME280;64233;51.486;6.332;2023-07-24T03:36:37;100124.31;;;16.67;100.00
75640;BME280;64233;51.486;6.332;2023-07-24T03:39:06;100131.34;;;16.68;100.00
75640;BME280;64233;51.486;6.332;2023-07-24T03:41:31;100123.03;;;16.65;100.00
75640;BME280;64233;51.486;6.332;2023-07-24T03:43:57;100127.66;;;16.64;100.00
75640;BME280;64233;51.486;6.332;2023-07-24T03:46:22;100119.22;;;16.66;100.00
75640;BME280;64233;51.486;6.332;2023-07-24T03:48:47;100109.28;;;16.61;100.00
75640;BME280;64233;51.486;6.332;2023-07-24T03:51:14;100111.81;;;16.58;100.00
75640;BME280;64233;51.486;6.332;2023-07-24T03:53:40;100110.53;;;16.55;100.00
75640;BME280;64233;51.486;6.332;2023-07-24T03:56:05;100116.72;;;16.56;100.00
75640;BME280;64233;51.486;6.332;2023-07-24T03:58:30;100107.63;;;16.51;100.00
75640;BME280;64233;51.486;6.332;2023-07-24T04:00:55;100112.53;;;16.49;100.00
75640;BME280;64233;51.486;6.332;2023-07-24T04:03:21;100118.47;;;16.51;100.00
75640;BME280;64233;51.486;6.332;2023-07-24T04:05:46;100111.13;;;16.52;100.00
75640;BME280;64233;51.486;6.332;2023-07-24T04:08:11;100117.66;;;16.51;100.00
75640;BME280;64233;51.486;6.332;2023-07-24T04:10:37;100103.94;;;16.47;100.00
75640;BME280;64233;51.486;6.332;2023-07-24T04:13:02;100097.91;;;16.50;100.00
75640;BME280;64233;51.486;6.332;2023-07-24T04:15:27;100084.97;;;16.47;100.00
75640;BME280;64233;51.486;6.332;2023-07-24T04:17:52;100083.84;;;16.48;100.00
75640;BME280;64233;51.486;6.332;2023-07-24T04:20:18;100087.19;;;16.45;100.00
75640;BME280;64233;51.486;6.332;2023-07-24T04:22:43;100092.28;;;16.47;100.00
75640;BME280;64233;51.486;6.332;2023-07-24T04:25:08;100100.41;;;16.47;100.00
75640;BME280;64233;51.486;6.332;2023-07-24T04:27:34;100099.31;;;16.48;100.00
75640;BME280;64233;51.486;6.332;2023-07-24T04:29:59;100108.84;;;16.45;100.00
75640;BME280;64233;51.486;6.332;2023-07-24T04:32:26;100100.72;;;16.45;100.00
75640;BME280;64233;51.486;6.332;2023-07-24T04:34:52;100103.63;;;16.49;100.00
75640;BME280;64233;51.486;6.332;2023-07-24T04:37:17;100102.31;;;16.46;100.00
75640;BME280;64233;51.486;6.332;2023-07-24T04:39:43;100114.78;;;16.47;100.00
75640;BME280;64233;51.486;6.332;2023-07-24T04:42:08;100114.47;;;16.49;100.00
75640;BME280;64233;51.486;6.332;2023-07-24T04:44:33;100119.69;;;16.45;100.00
75640;BME280;64233;51.486;6.332;2023-07-24T04:46:58;100114.78;;;16.47;100.00
75640;BME280;64233;51.486;6.332;2023-07-24T04:49:24;100114.25;;;16.45;100.00
75640;BME280;64233;51.486;6.332;2023-07-24T04:51:50;100117.97;;;16.49;100.00
75640;BME280;64233;51.486;6.332;2023-07-24T04:54:16;100119.56;;;16.50;100.00
75640;BME280;64233;51.486;6.332;2023-07-24T04:56:41;100119.06;;;16.48;100.00
75640;BME280;64233;51.486;6.332;2023-07-24T04:59:07;100124.69;;;16.52;100.00
75640;BME280;64233;51.486;6.332;2023-07-24T05:01:32;100109.84;;;16.49;100.00
75640;BME280;64233;51.486;6.332;2023-07-24T05:03:57;100124.69;;;16.52;100.00
75640;BME280;64233;51.486;6.332;2023-07-24T05:06:22;100121.66;;;16.53;100.00
75640;BME280;64233;51.486;6.332;2023-07-24T05:08:48;100137.19;;;16.62;100.00
75640;BME280;64233;51.486;6.332;2023-07-24T05:11:14;100158.03;;;16.61;100.00
75640;BME280;64233;51.486;6.332;2023-07-24T05:13:39;100161.72;;;16.43;100.00
75640;BME280;64233;51.486;6.332;2023-07-24T05:16:04;100155.53;;;16.28;100.00
75640;BME280;64233;51.486;6.332;2023-07-24T05:18:29;100151.13;;;16.18;100.00
75640;BME280;64233;51.486;6.332;2023-07-24T05:20:55;100150.38;;;16.04;100.00
75640;BME280;64233;51.486;6.332;2023-07-24T05:23:20;100148.19;;;15.92;100.00
75640;BME280;64233;51.486;6.332;2023-07-24T05:25:45;100140.66;;;15.89;100.00
75640;BME280;64233;51.486;6.332;2023-07-24T05:28:11;100144.47;;;15.88;100.00
75640;BME280;64233;51.486;6.332;2023-07-24T05:30:36;100143.78;;;15.82;100.00
75640;BME280;64233;51.486;6.332;2023-07-24T05:33:01;100139.66;;;15.85;100.00
75640;BME280;64233;51.486;6.332;2023-07-24T05:35:27;100149.19;;;15.82;100.00
75640;BME280;64233;51.486;6.332;2023-07-24T05:37:52;100158.41;;;15.81;100.00
75640;BME280;64233;51.486;6.332;2023-07-24T05:40:17;100176.31;;;15.77;100.00
75640;BME280;64233;51.486;6.332;2023-07-24T05:42:43;100149.47;;;15.81;100.00
75640;BME280;64233;51.486;6.332;2023-07-24T05:45:08;100137.31;;;15.78;100.00
75640;BME280;64233;51.486;6.332;2023-07-24T05:47:34;100145.44;;;15.78;100.00
75640;BME280;64233;51.486;6.332;2023-07-24T05:49:59;100139.25;;;15.78;100.00
75640;BME280;64233;51.486;6.332;2023-07-24T05:52:25;100139.16;;;15.83;100.00
75640;BME280;64233;51.486;6.332;2023-07-24T05:54:50;100150.06;;;15.78;100.00
75640;BME280;64233;51.486;6.332;2023-07-24T05:57:15;100145.84;;;15.72;100.00
75640;BME280;64233;51.486;6.332;2023-07-24T05:59:40;100146.97;;;15.71;100.00
75640;BME280;64233;51.486;6.332;2023-07-24T06:02:06;100163.19;;;15.71;100.00
75640;BME280;64233;51.486;6.332;2023-07-24T06:04:32;100178.00;;;15.73;100.00
75640;BME280;64233;51.486;6.332;2023-07-24T06:07:00;100166.59;;;15.76;100.00
75640;BME280;64233;51.486;6.332;2023-07-24T06:09:26;100164.81;;;15.86;100.00
75640;BME280;64233;51.486;6.332;2023-07-24T06:11:51;100166.13;;;15.88;100.00
75640;BME280;64233;51.486;6.332;2023-07-24T06:14:16;100166.13;;;15.88;100.00
75640;BME280;64233;51.486;6.332;2023-07-24T06:16:41;100165.22;;;15.93;100.00
75640;BME280;64233;51.486;6.332;2023-07-24T06:19:07;100168.31;;;16.00;100.00
75640;BME280;64233;51.486;6.332;2023-07-24T06:21:32;100179.34;;;16.04;100.00
75640;BME280;64233;51.486;6.332;2023-07-24T06:23:57;100172.81;;;16.18;100.00
75640;BME280;64233;51.486;6.332;2023-07-24T06:26:22;100171.00;;;16.14;100.00
75640;BME280;64233;51.486;6.332;2023-07-24T06:28:48;100174.09;;;16.21;100.00
75640;BME280;64233;51.486;6.332;2023-07-24T06:31:13;100181.97;;;16.45;100.00
75640;BME280;64233;51.486;6.332;2023-07-24T06:33:38;100180.41;;;16.30;100.00
75640;BME280;64233;51.486;6.332;2023-07-24T06:36:04;100179.50;;;16.35;100.00
75640;BME280;64233;51.486;6.332;2023-07-24T06:38:29;100189.94;;;16.42;100.00
75640;BME280;64233;51.486;6.332;2023-07-24T06:40:54;100183.13;;;16.30;100.00
75640;BME280;64233;51.486;6.332;2023-07-24T06:43:20;100188.31;;;16.41;100.00
75640;BME280;64233;51.486;6.332;2023-07-24T06:45:45;100191.03;;;16.41;100.00
75640;BME280;64233;51.486;6.332;2023-07-24T06:48:10;100189.25;;;16.36;100.00
75640;BME280;64233;51.486;6.332;2023-07-24T06:50:35;100185.31;;;16.28;100.00
75640;BME280;64233;51.486;6.332;2023-07-24T06:53:01;100181.41;;;16.34;100.00
75640;BME280;64233;51.486;6.332;2023-07-24T06:55:26;100186.00;;;16.34;100.00
75640;BME280;64233;51.486;6.332;2023-07-24T06:57:51;100183.00;;;16.35;100.00
75640;BME280;64233;51.486;6.332;2023-07-24T07:00:17;100190.31;;;16.49;100.00
75640;BME280;64233;51.486;6.332;2023-07-24T07:02:42;100180.78;;;16.51;100.00
75640;BME280;64233;51.486;6.332;2023-07-24T07:05:08;100182.50;;;16.47;100.00
75640;BME280;64233;51.486;6.332;2023-07-24T07:07:33;100185.44;;;16.60;100.00
75640;BME280;64233;51.486;6.332;2023-07-24T07:09:58;100184.56;;;16.64;100.00
75640;BME280;64233;51.486;6.332;2023-07-24T07:12:23;100188.09;;;16.51;100.00
75640;BME280;64233;51.486;6.332;2023-07-24T07:14:49;100179.03;;;16.56;100.00
75640;BME280;64233;51.486;6.332;2023-07-24T07:17:14;100188.66;;;16.62;100.00
75640;BME280;64233;51.486;6.332;2023-07-24T07:19:39;100172.34;;;16.53;100.00
75640;BME280;64233;51.486;6.332;2023-07-24T07:22:05;100186.06;;;16.57;100.00
75640;BME280;64233;51.486;6.332;2023-07-24T07:24:30;100174.63;;;16.60;100.00
75640;BME280;64233;51.486;6.332;2023-07-24T07:26:55;100178.69;;;16.71;100.00
75640;BME280;64233;51.486;6.332;2023-07-24T07:29:21;100177.84;;;16.84;100.00
75640;BME280;64233;51.486;6.332;2023-07-24T07:31:46;100181.97;;;16.82;100.00
75640;BME280;64233;51.486;6.332;2023-07-24T07:34:11;100177.22;;;16.87;100.00
75640;BME280;64233;51.486;6.332;2023-07-24T07:36:37;100180.47;;;16.90;100.00
75640;BME280;64233;51.486;6.332;2023-07-24T07:39:02;100173.31;;;16.94;100.00
75640;BME280;64233;51.486;6.332;2023-07-24T07:41:27;100173.63;;;16.92;100.00
75640;BME280;64233;51.486;6.332;2023-07-24T07:43:54;100165.84;;;16.99;100.00
75640;BME280;64233;51.486;6.332;2023-07-24T07:46:19;100167.19;;;17.11;100.00
75640;BME280;64233;51.486;6.332;2023-07-24T07:48:44;100154.69;;;17.01;100.00
75640;BME280;64233;51.486;6.332;2023-07-24T07:51:11;100151.16;;;16.78;100.00
75640;BME280;64233;51.486;6.332;2023-07-24T07:53:36;100146.47;;;16.69;100.00
75640;BME280;64233;51.486;6.332;2023-07-24T07:56:02;100146.06;;;16.76;100.00
75640;BME280;64233;51.486;6.332;2023-07-24T07:58:27;100139.09;;;17.07;100.00
75640;BME280;64233;51.486;6.332;2023-07-24T08:00:52;100145.94;;;17.27;100.00
75640;BME280;64233;51.486;6.332;2023-07-24T08:03:18;100140.91;;;17.43;100.00
75640;BME280;64233;51.486;6.332;2023-07-24T08:05:43;100129.34;;;17.68;100.00
75640;BME280;64233;51.486;6.332;2023-07-24T08:08:08;100128.72;;;17.71;100.00
75640;BME280;64233;51.486;6.332;2023-07-24T08:10:37;100121.78;;;17.97;100.00
75640;BME280;64233;51.486;6.332;2023-07-24T08:13:03;100114.16;;;18.08;100.00
75640;BME280;64233;51.486;6.332;2023-07-24T08:15:28;100105.38;;;18.28;100.00
75640;BME280;64233;51.486;6.332;2023-07-24T08:17:53;100100.56;;;18.51;100.00
75640;BME280;64233;51.486;6.332;2023-07-24T08:20:18;100097.03;;;18.59;100.00
75640;BME280;64233;51.486;6.332;2023-07-24T08:22:44;100105.38;;;18.63;100.00
75640;BME280;64233;51.486;6.332;2023-07-24T08:25:09;100095.41;;;18.93;100.00
75640;BME280;64233;51.486;6.332;2023-07-24T08:27:34;100092.75;;;18.58;100.00
75640;BME280;64233;51.486;6.332;2023-07-24T08:29:59;100097.25;;;18.46;100.00
75640;BME280;64233;51.486;6.332;2023-07-24T08:32:25;100089.25;;;18.23;100.00
75640;BME280;64233;51.486;6.332;2023-07-24T08:34:50;100095.28;;;18.20;100.00
75640;BME280;64233;51.486;6.332;2023-07-24T08:37:15;100095.97;;;18.34;100.00
75640;BME280;64233;51.486;6.332;2023-07-24T08:39:40;100097.34;;;17.97;100.00
75640;BME280;64233;51.486;6.332;2023-07-24T08:42:13;100096.38;;;17.93;100.00
75640;BME280;64233;51.486;6.332;2023-07-24T08:44:39;100096.47;;;17.79;100.00
75640;BME280;64233;51.486;6.332;2023-07-24T08:47:06;100103.97;;;17.73;100.00
75640;BME280;64233;51.486;6.332;2023-07-24T08:49:34;100097.91;;;17.76;100.00
75640;BME280;64233;51.486;6.332;2023-07-24T08:52:02;100103.28;;;17.59;100.00
75640;BME280;64233;51.486;6.332;2023-07-24T08:54:30;100087.16;;;17.53;100.00
75640;BME280;64233;51.486;6.332;2023-07-24T08:56:55;100087.03;;;17.67;100.00
75640;BME280;64233;51.486;6.332;2023-07-24T08:59:21;100093.69;;;18.10;100.00
75640;BME280;64233;51.486;6.332;2023-07-24T09:01:46;100100.59;;;18.60;100.00
75640;BME280;64233;51.486;6.332;2023-07-24T09:04:11;100095.63;;;18.53;100.00
75640;BME280;64233;51.486;6.332;2023-07-24T09:06:37;100084.06;;;18.74;100.00
75640;BME280;64233;51.486;6.332;2023-07-24T09:09:02;100079.78;;;18.55;100.00
75640;BME280;64233;51.486;6.332;2023-07-24T09:11:28;100079.25;;;18.80;100.00
75640;BME280;64233;51.486;6.332;2023-07-24T09:13:53;100074.13;;;19.04;100.00
75640;BME280;64233;51.486;6.332;2023-07-24T09:16:23;100078.66;;;18.83;100.00
75640;BME280;64233;51.486;6.332;2023-07-24T09:18:49;100073.19;;;18.74;100.00
75640;BME280;64233;51.486;6.332;2023-07-24T09:21:31;100071.94;;;18.63;100.00
75640;BME280;64233;51.486;6.332;2023-07-24T09:23:57;100069.00;;;18.85;100.00
75640;BME280;64233;51.486;6.332;2023-07-24T09:26:33;100068.84;;;18.99;100.00
75640;BME280;64233;51.486;6.332;2023-07-24T09:28:58;100072.34;;;19.08;100.00
75640;BME280;64233;51.486;6.332;2023-07-24T09:31:34;100068.19;;;19.11;100.00
75640;BME280;64233;51.486;6.332;2023-07-24T09:33:59;100060.66;;;19.08;100.00
75640;BME280;64233;51.486;6.332;2023-07-24T09:36:24;100058.94;;;19.03;100.00
75640;BME280;64233;51.486;6.332;2023-07-24T09:38:59;100058.97;;;18.86;100.00
75640;BME280;64233;51.486;6.332;2023-07-24T09:41:28;100048.56;;;18.88;100.00
75640;BME280;64233;51.486;6.332;2023-07-24T09:44:00;100042.38;;;18.70;100.00
75640;BME280;64233;51.486;6.332;2023-07-24T09:46:26;100040.94;;;18.64;100.00
75640;BME280;64233;51.486;6.332;2023-07-24T09:48:53;100041.56;;;18.69;100.00
75640;BME280;64233;51.486;6.332;2023-07-24T09:51:20;100048.00;;;18.56;100.00
75640;BME280;64233;51.486;6.332;2023-07-24T09:53:59;100043.03;;;18.49;100.00
75640;BME280;64233;51.486;6.332;2023-07-24T09:56:26;100033.72;;;18.68;100.00
75640;BME280;64233;51.486;6.332;2023-07-24T09:58:52;100028.56;;;18.84;100.00
75640;BME280;64233;51.486;6.332;2023-07-24T10:01:21;100033.47;;;19.08;100.00
75640;BME280;64233;51.486;6.332;2023-07-24T10:03:47;100021.53;;;19.30;100.00
75640;BME280;64233;51.486;6.332;2023-07-24T10:06:15;100009.03;;;19.59;100.00
75640;BME280;64233;51.486;6.332;2023-07-24T10:08:41;100009.47;;;20.12;100.00
75640;BME280;64233;51.486;6.332;2023-07-24T10:11:08;100009.47;;;20.12;100.00
75640;BME280;64233;51.486;6.332;2023-07-24T10:13:34;99996.81;;;19.95;100.00
75640;BME280;64233;51.486;6.332;2023-07-24T10:16:02;99986.97;;;19.52;100.00
75640;BME280;64233;51.486;6.332;2023-07-24T10:18:28;99981.16;;;19.41;100.00
75640;BME280;64233;51.486;6.332;2023-07-24T10:21:05;99976.25;;;19.55;100.00
75640;BME280;64233;51.486;6.332;2023-07-24T10:23:34;99985.28;;;19.68;100.00
75640;BME280;64233;51.486;6.332;2023-07-24T10:26:03;99991.84;;;19.67;100.00
75640;BME280;64233;51.486;6.332;2023-07-24T10:28:39;99980.56;;;19.56;100.00
75640;BME280;64233;51.486;6.332;2023-07-24T10:31:07;99980.75;;;19.51;100.00
75640;BME280;64233;51.486;6.332;2023-07-24T10:33:35;99981.78;;;19.17;100.00
75640;BME280;64233;51.486;6.332;2023-07-24T10:36:07;99971.72;;;19.08;100.00
75640;BME280;64233;51.486;6.332;2023-07-24T10:38:36;99970.78;;;19.04;100.00
75640;BME280;64233;51.486;6.332;2023-07-24T10:41:04;99975.44;;;18.95;100.00
75640;BME280;64233;51.486;6.332;2023-07-24T10:43:43;99982.06;;;18.76;100.00
75640;BME280;64233;51.486;6.332;2023-07-24T10:46:08;99989.31;;;18.55;100.00
75640;BME280;64233;51.486;6.332;2023-07-24T10:48:34;99993.16;;;18.54;100.00
75640;BME280;64233;51.486;6.332;2023-07-24T10:51:06;99999.09;;;18.38;100.00
75640;BME280;64233;51.486;6.332;2023-07-24T10:53:34;100005.84;;;18.15;100.00
75640;BME280;64233;51.486;6.332;2023-07-24T10:56:00;100025.16;;;18.04;100.00
75640;BME280;64233;51.486;6.332;2023-07-24T10:58:26;100027.06;;;17.86;100.00
75640;BME280;64233;51.486;6.332;2023-07-24T11:00:52;100053.38;;;17.86;100.00
75640;BME280;64233;51.486;6.332;2023-07-24T11:03:17;100062.63;;;17.76;100.00
75640;BME280;64233;51.486;6.332;2023-07-24T11:05:44;100075.53;;;17.70;100.00
75640;BME280;64233;51.486;6.332;2023-07-24T11:08:15;100074.97;;;17.42;100.00
75640;BME280;64233;51.486;6.332;2023-07-24T11:10:55;100075.47;;;17.44;100.00
75640;BME280;64233;51.486;6.332;2023-07-24T11:13:23;100070.28;;;17.25;100.00
75640;BME280;64233;51.486;6.332;2023-07-24T11:15:49;100068.81;;;17.10;100.00
75640;BME280;64233;51.486;6.332;2023-07-24T11:18:16;100075.25;;;16.92;100.00
75640;BME280;64233;51.486;6.332;2023-07-24T11:20:49;100055.88;;;17.07;100.00
75640;BME280;64233;51.486;6.332;2023-07-24T11:23:15;100053.94;;;17.08;100.00
75640;BME280;64233;51.486;6.332;2023-07-24T11:25:41;100048.97;;;17.01;100.00
75640;BME280;64233;51.486;6.332;2023-07-24T11:28:07;100028.91;;;17.11;100.00
75640;BME280;64233;51.486;6.332;2023-07-24T11:30:34;99979.22;;;17.24;100.00
75640;BME280;64233;51.486;6.332;2023-07-24T11:33:01;99978.38;;;17.15;100.00
75640;BME280;64233;51.486;6.332;2023-07-24T11:35:27;99987.69;;;17.40;100.00
75640;BME280;64233;51.486;6.332;2023-07-24T11:37:53;99990.03;;;18.08;100.00
75640;BME280;64233;51.486;6.332;2023-07-24T11:40:18;100011.09;;;18.20;100.00
75640;BME280;64233;51.486;6.332;2023-07-24T11:42:46;100037.13;;;18.30;100.00
75640;BME280;64233;51.486;6.332;2023-07-24T11:45:11;100041.28;;;18.53;100.00
75640;BME280;64233;51.486;6.332;2023-07-24T11:47:47;100041.38;;;18.83;100.00
75640;BME280;64233;51.486;6.332;2023-07-24T11:50:13;100041.75;;;19.20;100.00
75640;BME280;64233;51.486;6.332;2023-07-24T11:52:41;100038.06;;;19.16;100.00
75640;BME280;64233;51.486;6.332;2023-07-24T11:55:12;100028.06;;;19.38;100.00
75640;BME280;64233;51.486;6.332;2023-07-24T11:57:38;100029.84;;;19.64;100.00
75640;BME280;64233;51.486;6.332;2023-07-24T12:00:05;100023.41;;;19.38;100.00
75640;BME280;64233;51.486;6.332;2023-07-24T12:02:32;100004.50;;;19.12;100.00
75640;BME280;64233;51.486;6.332;2023-07-24T12:04:59;100006.41;;;18.64;100.00
75640;BME280;64233;51.486;6.332;2023-07-24T12:07:35;100016.81;;;18.53;100.00
75640;BME280;64233;51.486;6.332;2023-07-24T12:10:04;100021.78;;;18.60;100.00
75640;BME280;64233;51.486;6.332;2023-07-24T12:12:43;100020.13;;;18.68;100.00
75640;BME280;64233;51.486;6.332;2023-07-24T12:15:10;100017.06;;;18.78;100.00
75640;BME280;64233;51.486;6.332;2023-07-24T12:17:35;100032.13;;;18.75;100.00
75640;BME280;64233;51.486;6.332;2023-07-24T12:20:01;100023.97;;;18.67;100.00
75640;BME280;64233;51.486;6.332;2023-07-24T12:22:27;100016.66;;;18.50;100.00
75640;BME280;64233;51.486;6.332;2023-07-24T12:24:52;100015.03;;;18.66;100.00
75640;BME280;64233;51.486;6.332;2023-07-24T12:27:18;100029.22;;;18.89;100.00
75640;BME280;64233;51.486;6.332;2023-07-24T12:29:43;100026.81;;;18.79;100.00
75640;BME280;64233;51.486;6.332;2023-07-24T12:32:08;100024.69;;;19.11;100.00
75640;BME280;64233;51.486;6.332;2023-07-24T12:34:33;100020.03;;;19.12;100.00
75640;BME280;64233;51.486;6.332;2023-07-24T12:36:59;100006.47;;;19.03;100.00
75640;BME280;64233;51.486;6.332;2023-07-24T12:39:24;100006.78;;;19.61;100.00